Flight Track Log - Related Links

Times and Time Zones

All times are in EDT time to prevent confusion due to time zone crossing. See the SKW6492 flight status page for this flight to view local times or setup timezone preferences in your user account.


Time Position Orientation Groundspeed Altitude Reporting Facility
EDT Latitude Longitude Course Direction KTS MPH feet Rate Location/Type
Sun 10:17:24 PM 39.8667 -104.8000 346° North 245 282 7,400  Level Denver TRACON
Sun 10:18:24 PM 39.9000 -104.9000 294° West 298 343 9,600 2,198 Climbing Denver TRACON
Sun 10:19:00 PM 40.1770 -104.7747 347° North  Level FlightAware Approximate
Sun 10:19:05 PM 39.9442 -104.9428 323° Northwest 299 344 11,100  Level Denver Center
Sun 10:20:00 PM 40.2868 -104.8077 347° North  Level FlightAware Approximate
Sun 10:20:07 PM 40.0264 -104.9028 20° North 317 365 12,900  Level Denver Center
Sun 10:21:00 PM 40.3961 -104.8431 346° North  Level FlightAware Approximate
Sun 10:21:20 PM 40.1156 -104.8431 27° Northeast 332 382 14,600  Level Denver Center
Sun 10:22:00 PM 40.4949 -104.8761 346° North  Level FlightAware Approximate
Sun 10:22:22 PM 40.2236 -104.8036 16° North 361 415 16,200  Level Denver Center
Sun 10:23:24 PM 40.3356 -104.8108 357° North 375 432 17,400 1,016 Climbing Denver Center
Sun 10:24:26 PM 40.4414 -104.8225 355° North 383 441 18,300 1,122 Climbing Denver Center
Sun 10:25:27 PM 40.5592 -104.8306 357° North 390 449 19,700 1,268 Climbing Denver Center
Sun 10:26:29 PM 40.6647 -104.8406 356° North 383 441 20,900 1,161 Climbing Denver Center
Sun 10:27:31 PM 40.7739 -104.8464 358° North 381 438 22,100 1,073 Climbing Denver Center
Sun 10:28:32 PM 40.8739 -104.8914 341° North 381 438 23,100 780 Climbing Denver Center
Sun 10:29:34 PM 40.9672 -104.9642 330° Northwest 402 463 23,700 581 Climbing Denver Center
Sun 10:30:36 PM 41.0633 -105.0581 324° Northwest 388 447 24,300 484 Climbing Denver Center
Sun 10:31:38 PM 41.1492 -105.1461 322° Northwest 401 461 24,700 488 Climbing Denver Center
Sun 10:32:39 PM 41.2506 -105.2486 323° Northwest 408 470 25,300 488 Climbing Denver Center
Sun 10:33:41 PM 41.3244 -105.3239 323° Northwest 414 476 25,700 339 Climbing Denver Center
Sun 10:34:43 PM 41.4269 -105.4289 322° Northwest 415 478 26,000 146 Climbing Denver Center
Sun 10:35:44 PM 41.5328 -105.5406 322° Northwest 427 491 26,000  Level Denver Center
Sun 10:36:46 PM 41.6264 -105.6369 322° Northwest 438 504 26,000 290 Level Denver Center
Sun 10:37:48 PM 41.7356 -105.7525 322° Northwest 445 512 26,600 732 Climbing Denver Center
Sun 10:38:49 PM 41.8267 -105.8486 322° Northwest 438 504 27,500 683 Climbing Denver Center
Sun 10:39:51 PM 41.9139 -105.9414 322° Northwest 429 494 28,000 242 Climbing Denver Center
Sun 10:40:53 PM 42.0172 -106.0478 323° Northwest 421 484 28,000  Level Denver Center
Sun 10:41:54 PM 42.1064 -106.1444 321° Northwest 425 489 28,000  Level Denver Center
Sun 10:42:56 PM 42.2142 -106.2594 322° Northwest 438 504 28,000  Level Denver Center
Sun 10:43:58 PM 42.3081 -106.3592 322° Northwest 446 513 28,000  Level Denver Center
Sun 10:44:59 PM 42.4169 -106.4769 321° Northwest 447 514 28,000  Level Denver Center
Sun 10:46:01 PM 42.4964 -106.5625 322° Northwest 453 521 28,000  Level Denver Center
Sun 10:47:02 PM 42.6075 -106.6817 322° Northwest 454 522 28,000  Level Denver Center
Sun 10:48:04 PM 42.7175 -106.8017 321° Northwest 455 524 28,000  Level Denver Center
Sun 10:49:06 PM 42.8125 -106.9064 321° Northwest 457 526 28,000  Level Denver Center
Sun 10:49:59 PM 42.9050 -107.0053 322° Northwest 460 529 28,000  Level Salt Lake Center
Sun 10:51:00 PM 43.0050 -107.1186 320° Northwest 455 524 28,000  Level Salt Lake Center
Sun 10:52:02 PM 43.1044 -107.2286 321° Northwest 458 527 28,000 -244 Level Salt Lake Center
Sun 10:53:03 PM 43.2039 -107.3364 322° Northwest 456 525 27,500 -927 Descending Salt Lake Center
Sun 10:54:05 PM 43.3069 -107.4531 321° Northwest 476 548 26,100 -1,306 Descending Salt Lake Center
Sun 10:55:07 PM 43.4039 -107.5833 316° Northwest 486 559 24,800 -1,512 Descending Salt Lake Center
Sun 10:56:08 PM 43.4978 -107.7131 315° West 480 552 23,000 -1,967 Descending Salt Lake Center
Sun 10:57:09 PM 43.6014 -107.8508 316° Northwest 436 502 20,800 -1,951 Descending Salt Lake Center
Sun 10:58:11 PM 43.6842 -107.9653 315° West 422 486 19,000 -1,756 Descending Salt Lake Center
Sun 10:59:12 PM 43.7700 -108.0836 315° West 433 498 17,200 -1,574 Descending Salt Lake Center
Sun 11:00:13 PM 43.8544 -108.1989 315° West 429 494 15,800 -1,268 Descending Salt Lake Center
Sun 11:01:15 PM 43.9342 -108.3128 314° West 423 487 14,600 -927 Descending Salt Lake Center
Sun 11:02:16 PM 44.0119 -108.4233 314° West 414 476 13,900 -390 Descending Salt Lake Center
Sun 11:03:18 PM 44.0911 -108.5314 316° Northwest 406 467 13,800 -439 Descending Salt Lake Center
Sun 11:04:19 PM 44.1711 -108.6436 315° West 405 466 13,000 -934 Descending Salt Lake Center
Sun 11:05:20 PM 44.2492 -108.7550 314° West 404 465 11,900 -1,082 Descending Salt Lake Center

Login

Don't have an account? Register now (free) for customized features, flight alerts, and more!